Time;durP1;ratioP1;P1;durP2;ratioP2;P2;SDS_P1;SDS_P2;PMS_P1;PMS_P2;Temp;Humidity;BMP_temperature;BMP_pressure;BME280_temperature;BME280_humidity;BME280_pressure;Samples;Min_cycle;Max_cycle;Signal;HPM_P1;HPM_P2
2022/10/10 00:00:45;;;;;;;2.27;1.70;;;;;;;6.79;100.00;101871.38;4976677;28;20419;-77
2022/10/10 00:03:11;;;;;;;7.57;2.00;;;;;;;6.75;100.00;101867.25;4976077;28;20031;-75
2022/10/10 00:05:38;;;;;;;4.27;1.60;;;;;;;6.69;100.00;101868.56;4976028;28;20061;-75
2022/10/10 00:08:04;;;;;;;3.97;2.23;;;;;;;6.72;100.00;101872.78;4975922;28;20031;-77
2022/10/10 00:10:29;;;;;;;3.70;1.80;;;;;;;6.64;100.00;101872.47;4975837;28;20035;-75
2022/10/10 00:12:55;;;;;;;5.90;1.63;;;;;;;6.65;100.00;101884.75;4975936;28;20378;-75
2022/10/10 00:15:21;;;;;;;4.57;1.20;;;;;;;6.63;100.00;101878.72;4975831;28;20069;-75
2022/10/10 00:17:47;;;;;;;3.33;1.43;;;;;;;6.63;100.00;101881.34;4975725;28;20058;-77
2022/10/10 00:20:15;;;;;;;2.53;2.00;;;;;;;6.61;100.00;101888.56;4975761;28;20037;-75
2022/10/10 00:22:41;;;;;;;3.70;1.58;;;;;;;6.58;100.00;101891.44;4975640;28;20037;-74
2022/10/10 00:25:07;;;;;;;2.63;1.87;;;;;;;6.50;100.00;101882.25;4958186;28;20125;-76
2022/10/10 00:27:33;;;;;;;2.67;2.40;;;;;;;6.51;100.00;101891.88;4975582;28;20038;-76
2022/10/10 00:29:58;;;;;;;3.33;1.80;;;;;;;6.49;100.00;101885.84;4976203;28;20035;-75
2022/10/10 00:32:24;;;;;;;2.63;1.53;;;;;;;6.49;100.00;101912.31;4975927;28;20022;-76
2022/10/10 00:34:50;;;;;;;5.90;1.90;;;;;;;6.48;100.00;101910.63;4975595;28;20081;-77
2022/10/10 00:37:16;;;;;;;4.50;2.03;;;;;;;6.46;100.00;101907.25;4975403;28;20490;-75
2022/10/10 00:39:41;;;;;;;5.77;2.43;;;;;;;6.44;100.00;101905.66;4975392;28;20038;-76
2022/10/10 00:42:11;;;;;;;3.97;2.17;;;;;;;6.46;100.00;101915.19;4958293;28;20113;-75
2022/10/10 00:44:39;;;;;;;4.63;2.00;;;;;;;6.42;100.00;101919.00;4975662;28;20050;-76
2022/10/10 00:47:05;;;;;;;6.67;2.60;;;;;;;6.47;100.00;101924.81;4975717;28;20102;-77
2022/10/10 00:49:33;;;;;;;7.33;2.83;;;;;;;6.45;100.00;101924.06;4975742;28;20034;-78
2022/10/10 00:51:59;;;;;;;7.22;2.50;;;;;;;6.36;100.00;101916.78;4975486;28;20029;-75
2022/10/10 00:54:27;;;;;;;8.93;2.53;;;;;;;6.37;100.00;101923.78;4975054;28;20034;-75
2022/10/10 00:57:13;;;;;;;4.47;2.37;;;;;;;6.35;100.00;101941.53;4958671;28;20423;-75
2022/10/10 00:59:42;;;;;;;4.47;2.23;;;;;;;6.28;100.00;101934.97;4977174;28;20557;-74
2022/10/10 01:02:08;;;;;;;3.83;2.07;;;;;;;6.28;100.00;101942.91;4976928;28;20027;-75
2022/10/10 01:04:42;;;;;;;5.23;2.40;;;;;;;6.26;100.00;101943.97;4976838;28;20054;-74
2022/10/10 01:07:13;;;;;;;3.17;2.27;;;;;;;6.22;100.00;101943.34;4975313;28;20237;-74
2022/10/10 01:09:42;;;;;;;7.57;2.37;;;;;;;6.21;100.00;101944.28;4975962;28;20378;-74
2022/10/10 01:12:42;;;;;;;3.90;2.40;;;;;;;6.19;100.00;101947.03;4975573;28;20027;-75
2022/10/10 01:15:20;;;;;;;4.67;2.33;;;;;;;6.18;100.00;101952.44;4975168;28;20526;-75
2022/10/10 01:18:11;;;;;;;3.35;2.30;;;;;;;6.09;100.00;101939.84;4975733;28;20043;-74
2022/10/10 01:20:45;;;;;;;9.90;2.13;;;;;;;6.14;100.00;101958.91;4975696;28;20046;-75
2022/10/10 01:23:38;;;;;;;4.53;1.87;;;;;;;6.17;100.00;101956.03;4975165;28;20022;-75
2022/10/10 01:26:40;;;;;;;6.73;1.97;;;;;;;6.20;100.00;101953.19;4975038;28;20117;-75
2022/10/10 01:29:24;;;;;;;5.47;2.10;;;;;;;6.19;100.00;101941.75;4957472;28;20038;-76
2022/10/10 01:31:54;;;;;;;8.27;2.03;;;;;;;6.33;100.00;101954.00;4974342;28;20030;-75
2022/10/10 01:34:41;;;;;;;9.90;1.90;;;;;;;6.33;100.00;101959.31;4974473;28;20382;-74
2022/10/10 01:37:15;;;;;;;5.83;1.90;;;;;;;6.28;100.00;101953.50;4974276;28;20505;-77
2022/10/10 01:39:50;;;;;;;3.60;1.83;;;;;;;6.17;100.00;101943.66;4974214;28;20363;-77
2022/10/10 01:42:46;;;;;;;3.77;2.07;;;;;;;6.14;100.00;101946.50;4974092;28;20026;-75
2022/10/10 01:45:11;;;;;;;4.67;2.47;;;;;;;6.09;100.00;101947.78;4974439;28;20034;-76
2022/10/10 01:47:38;;;;;;;3.67;1.83;;;;;;;6.09;100.00;101950.44;4974264;28;20030;-75
2022/10/10 01:50:09;;;;;;;2.63;2.37;;;;;;;6.09;100.00;101956.56;4974338;28;20450;-76
2022/10/10 01:52:52;;;;;;;4.50;2.20;;;;;;;6.09;100.00;101961.00;4973957;28;20023;-76
2022/10/10 01:55:20;;;;;;;3.57;2.07;;;;;;;6.05;100.00;101970.06;4974960;28;20030;-75
2022/10/10 01:57:49;;;;;;;3.30;1.92;;;;;;;6.06;100.00;101971.78;4977127;28;20067;-75
2022/10/10 02:00:16;;;;;;;3.42;1.92;;;;;;;6.01;100.00;101974.72;4979039;28;20041;-76
2022/10/10 02:03:01;;;;;;;6.83;2.13;;;;;;;6.05;100.00;101976.22;4973784;28;20048;-75
2022/10/10 02:05:50;;;;;;;3.20;1.80;;;;;;;6.07;100.00;101978.75;4960009;28;20078;-75
2022/10/10 02:08:44;;;;;;;11.27;2.05;;;;;;;6.06;100.00;101971.78;4973850;28;20023;-75
2022/10/10 02:11:11;;;;;;;2.37;1.57;;;;;;;6.01;100.00;101968.59;4973622;28;20031;-76
2022/10/10 02:13:47;;;;;;;2.93;1.80;;;;;;;6.02;100.00;101975.56;4973508;28;20469;-75
2022/10/10 02:16:30;;;;;;;3.50;1.50;;;;;;;6.01;100.00;101976.53;4973212;28;20142;-75
2022/10/10 02:18:58;;;;;;;2.20;1.63;;;;;;;5.99;100.00;101975.78;4973041;28;20069;-76
2022/10/10 02:21:25;;;;;;;5.00;1.73;;;;;;;5.98;100.00;101979.38;4973622;28;20030;-76
2022/10/10 02:23:54;;;;;;;4.13;1.60;;;;;;;5.89;100.00;101971.13;4973614;28;20027;-76
2022/10/10 02:26:20;;;;;;;;;;;;;;;5.94;100.00;101975.25;4974134;28;20057;-75
2022/10/10 02:28:56;;;;;;;3.77;1.70;;;;;;;5.85;100.00;101964.31;4973666;28;19910;-75
2022/10/10 02:31:45;;;;;;;4.63;2.13;;;;;;;5.66;100.00;101940.06;4973974;28;20030;-74
2022/10/10 02:34:17;;;;;;;4.40;1.80;;;;;;;5.85;100.00;101972.25;4973398;28;20053;-76
2022/10/10 02:36:48;;;;;;;3.43;1.50;;;;;;;5.76;100.00;101964.91;4973202;28;20043;-76
2022/10/10 02:39:17;;;;;;;4.07;1.43;;;;;;;5.86;100.00;101976.59;4973278;28;20398;-77
2022/10/10 02:41:46;;;;;;;4.80;1.80;;;;;;;5.88;100.00;101974.69;4973466;28;20033;-75
2022/10/10 02:44:13;;;;;;;5.07;2.00;;;;;;;5.86;100.00;101971.31;4973351;28;20117;-75
2022/10/10 02:46:39;;;;;;;7.63;2.23;;;;;;;5.87;100.00;101975.63;4973243;28;20077;-76
2022/10/10 02:49:07;;;;;;;3.93;1.40;;;;;;;5.88;100.00;101985.25;4973385;28;20023;-77
2022/10/10 02:51:33;;;;;;;2.13;1.45;;;;;;;5.84;100.00;101978.50;4973655;28;20037;-76
2022/10/10 02:53:59;;;;;;;1.60;1.50;;;;;;;5.73;100.00;101959.84;4973732;28;20478;-75
2022/10/10 02:56:25;;;;;;;3.50;1.50;;;;;;;5.80;100.00;101978.81;4973947;28;20031;-76
2022/10/10 02:58:50;;;;;;;2.80;1.80;;;;;;;5.73;100.00;101973.06;4973748;28;20038;-76
2022/10/10 03:01:16;;;;;;;3.33;1.70;;;;;;;5.74;100.00;101984.47;4956308;28;20026;-76
2022/10/10 03:03:41;;;;;;;4.40;1.90;;;;;;;5.71;100.00;101985.53;4973273;28;20033;-77
2022/10/10 03:06:07;;;;;;;6.00;2.20;;;;;;;5.68;100.00;101977.81;4973626;28;20023;-76
2022/10/10 03:08:32;;;;;;;7.27;2.83;;;;;;;5.68;100.00;101991.03;4973167;28;20034;-75
2022/10/10 03:11:00;;;;;;;2.30;1.73;;;;;;;5.56;100.00;101970.69;4972902;28;20035;-75
2022/10/10 03:13:26;;;;;;;5.10;1.90;;;;;;;5.62;100.00;101980.00;4972822;28;20038;-77
2022/10/10 03:15:53;;;;;;;1.83;1.43;;;;;;;5.61;100.00;101976.53;4972627;28;20051;-77
2022/10/10 03:18:18;;;;;;;3.60;1.67;;;;;;;5.55;100.00;101972.50;4955443;28;20038;-76
2022/10/10 03:20:45;;;;;;;2.50;1.97;;;;;;;5.57;100.00;101980.31;4955454;28;20030;-76
2022/10/10 03:23:12;;;;;;;2.33;1.90;;;;;;;5.50;100.00;101979.03;4973055;28;20035;-77
2022/10/10 03:25:42;;;;;;;2.97;1.73;;;;;;;5.50;100.00;101984.31;4972647;28;20498;-76
2022/10/10 03:28:08;;;;;;;2.07;1.50;;;;;;;5.47;100.00;101976.56;4972798;28;20391;-75
2022/10/10 03:30:34;;;;;;;4.07;2.00;;;;;;;5.47;100.00;101984.47;4976061;28;20537;-75
2022/10/10 03:32:59;;;;;;;7.40;2.53;;;;;;;5.44;100.00;101974.13;4976297;28;20062;-76
2022/10/10 03:35:25;;;;;;;5.70;2.00;;;;;;;5.45;100.00;101983.75;4976390;28;20030;-75
2022/10/10 03:37:50;;;;;;;4.90;1.97;;;;;;;5.45;100.00;101986.38;4976565;28;20034;-76
2022/10/10 03:40:20;;;;;;;2.20;1.70;;;;;;;5.36;100.00;101971.97;4958809;28;20527;-75
2022/10/10 03:42:45;;;;;;;2.33;1.50;;;;;;;5.50;100.00;101994.88;4976387;28;20391;-76
2022/10/10 03:45:10;;;;;;;5.33;2.03;;;;;;;5.39;100.00;101970.94;4976240;28;20027;-75
2022/10/10 03:47:36;;;;;;;2.60;1.77;;;;;;;5.34;100.00;101973.03;4977064;28;20038;-75
2022/10/10 03:50:02;;;;;;;3.67;1.70;;;;;;;5.46;100.00;101988.91;4978047;28;20033;-75
2022/10/10 03:52:32;;;;;;;6.90;2.13;;;;;;;5.49;100.00;101998.44;4977853;28;20031;-76
2022/10/10 03:55:00;;;;;;;8.30;1.97;;;;;;;5.53;100.00;101986.75;4943283;28;20027;-76
2022/10/10 03:57:40;;;;;;;2.67;1.83;;;;;;;5.51;100.00;101986.84;4932390;29;20046;-77
2022/10/10 04:00:07;;;;;;;3.00;1.80;;;;;;;5.55;100.00;102000.72;4916587;29;20056;-76
2022/10/10 04:03:17;;;;;;;3.27;1.70;;;;;;;5.24;100.00;101947.22;4906782;29;20063;-77
2022/10/10 04:05:43;;;;;;;3.33;2.50;;;;;;;5.40;100.00;101978.75;4891258;29;20127;-76
2022/10/10 04:12:05;;;;;;;4.83;1.73;;;;;;;5.37;100.00;101973.69;4938959;29;20132;-80
2022/10/10 04:15:21;;;;;;;2.63;1.87;;;;;;;5.49;100.00;101995.81;4923818;29;20111;-77
2022/10/10 04:17:59;;;;;;;3.37;2.30;;;;;;;5.42;100.00;101989.22;4953155;29;20051;-75
2022/10/10 04:26:52;;;;;;;11.97;4.60;;;;;;;5.36;100.00;101992.28;4996726;23;20109;-80
2022/10/10 04:29:18;;;;;;;8.23;4.37;;;;;;;5.26;100.00;101986.75;4959661;28;20085;-77
2022/10/10 04:31:43;;;;;;;7.60;3.40;;;;;;;5.29;100.00;101995.31;4977255;28;20031;-78
2022/10/10 04:34:12;;;;;;;8.50;4.67;;;;;;;5.28;100.00;101996.25;4977603;28;20027;-78
2022/10/10 04:36:37;;;;;;;10.73;4.68;;;;;;;5.27;100.00;101999.00;4975456;28;20383;-74
2022/10/10 04:39:03;;;;;;;9.63;6.33;;;;;;;5.11;100.00;101969.22;4975358;28;20042;-78
2022/10/10 04:41:29;;;;;;;12.03;6.53;;;;;;;5.30;100.00;101998.81;4974575;28;20039;-76
2022/10/10 04:43:55;;;;;;;7.63;5.30;;;;;;;5.32;100.00;101998.69;4976758;28;20149;-75
2022/10/10 04:46:20;;;;;;;13.03;6.30;;;;;;;5.29;100.00;102007.66;4975847;28;20035;-75
2022/10/10 04:49:04;;;;;;;10.43;5.37;;;;;;;5.24;100.00;102000.06;4987006;28;20093;-75
2022/10/10 04:51:30;;;;;;;9.33;5.77;;;;;;;5.29;100.00;102003.25;4977196;28;20026;-76
2022/10/10 04:53:55;;;;;;;10.83;5.60;;;;;;;5.34;100.00;102005.59;4973616;28;20023;-75
2022/10/10 04:56:21;;;;;;;8.47;4.20;;;;;;;5.38;100.00;102016.78;4974363;28;20026;-74
2022/10/10 04:58:46;;;;;;;7.23;4.70;;;;;;;5.41;100.00;102016.59;4979628;28;20030;-73
2022/10/10 05:01:12;;;;;;;12.23;4.97;;;;;;;5.43;100.00;102022.63;4974970;28;20030;-75
2022/10/10 05:03:37;;;;;;;6.00;3.17;;;;;;;5.45;100.00;102020.72;4979868;28;20050;-75
2022/10/10 05:06:03;;;;;;;5.27;3.20;;;;;;;5.44;100.00;102027.81;4993754;28;20027;-73
2022/10/10 05:08:28;;;;;;;5.10;2.90;;;;;;;5.42;100.00;102024.41;4970049;28;20110;-73
2022/10/10 05:10:54;;;;;;;4.53;3.07;;;;;;;5.47;100.00;102024.13;4987012;28;20121;-73
2022/10/10 05:13:19;;;;;;;2.90;2.07;;;;;;;5.48;100.00;102024.00;4990338;28;20050;-75
2022/10/10 05:15:49;;;;;;;4.30;2.13;;;;;;;5.51;100.00;102021.22;4986697;28;20023;-73
2022/10/10 05:18:15;;;;;;;3.70;2.03;;;;;;;5.42;100.00;102015.66;4991930;28;20054;-75
2022/10/10 05:20:42;;;;;;;4.30;3.00;;;;;;;5.53;100.00;102034.31;4992032;28;20026;-74
2022/10/10 05:23:08;;;;;;;5.13;2.40;;;;;;;5.55;100.00;102035.91;4975607;28;20053;-76
2022/10/10 05:25:35;;;;;;;5.97;1.93;;;;;;;5.60;100.00;102038.25;4991400;28;20082;-76
2022/10/10 05:28:01;;;;;;;2.10;1.70;;;;;;;5.67;98.81;102038.69;4982446;28;20042;-77
2022/10/10 05:30:26;;;;;;;2.73;1.70;;;;;;;5.71;99.05;102034.91;4976366;28;20036;-76
2022/10/10 05:32:52;;;;;;;2.77;2.27;;;;;;;5.75;98.66;102045.16;4960477;28;20062;-77
2022/10/10 05:35:17;;;;;;;3.67;2.20;;;;;;;5.80;98.55;102045.75;4974379;28;20038;-74
2022/10/10 05:37:43;;;;;;;2.70;2.07;;;;;;;5.83;99.16;102044.69;4974112;28;20034;-77
2022/10/10 05:40:09;;;;;;;3.37;2.23;;;;;;;5.79;99.60;102044.03;4974526;28;20043;-76
2022/10/10 05:42:36;;;;;;;4.57;3.33;;;;;;;5.82;99.63;102051.78;4974215;28;20375;-77
2022/10/10 05:45:01;;;;;;;4.20;2.30;;;;;;;5.78;100.00;102041.47;4974137;28;20081;-76
2022/10/10 05:47:28;;;;;;;7.47;3.43;;;;;;;5.55;100.00;102004.19;4973895;28;20046;-76
2022/10/10 05:49:54;;;;;;;4.27;2.23;;;;;;;5.84;100.00;102057.81;4974253;28;20486;-78
2022/10/10 05:52:19;;;;;;;5.13;2.67;;;;;;;5.82;100.00;102043.00;4975208;28;20031;-76
2022/10/10 05:54:45;;;;;;;4.27;2.70;;;;;;;5.92;100.00;102054.69;4974879;28;20034;-78
2022/10/10 05:57:11;;;;;;;4.73;2.43;;;;;;;5.89;100.00;102049.56;4958336;28;20031;-77
2022/10/10 05:59:36;;;;;;;7.10;2.70;;;;;;;5.94;100.00;102057.22;4974036;28;20030;-77
2022/10/10 06:02:02;;;;;;;6.43;2.53;;;;;;;5.98;100.00;102064.00;4973838;28;20383;-77
2022/10/10 06:04:31;;;;;;;5.23;2.80;;;;;;;5.95;100.00;102058.91;4973999;28;20089;-77
2022/10/10 06:06:56;;;;;;;;;;;;;;;6.03;100.00;102065.38;4974191;28;20478;-75
2022/10/10 06:09:22;;;;;;;4.20;2.93;;;;;;;6.03;100.00;102069.84;4974603;28;19910;-77
2022/10/10 06:11:47;;;;;;;9.17;3.80;;;;;;;6.02;100.00;102060.19;4976545;28;20035;-75
2022/10/10 06:14:13;;;;;;;5.47;3.30;;;;;;;6.02;100.00;102055.75;4973704;28;20042;-77
2022/10/10 06:16:38;;;;;;;6.57;3.20;;;;;;;5.93;100.00;102018.50;4973850;28;20101;-77
2022/10/10 06:19:04;;;;;;;3.33;2.73;;;;;;;6.19;100.00;102062.59;4973391;28;20026;-77
2022/10/10 06:21:30;;;;;;;4.33;2.80;;;;;;;6.20;100.00;102064.28;4974713;28;20023;-77
2022/10/10 06:23:56;;;;;;;7.13;3.03;;;;;;;6.23;100.00;102058.78;4973609;28;20117;-77
2022/10/10 06:26:27;;;;;;;6.33;3.50;;;;;;;6.28;100.00;102061.97;4974020;28;20039;-76
2022/10/10 06:29:13;;;;;;;4.87;3.67;;;;;;;6.32;100.00;102046.72;4972708;28;20510;-76
2022/10/10 06:31:40;;;;;;;5.90;3.53;;;;;;;6.25;100.00;102029.56;4972553;28;20058;-76
2022/10/10 06:34:13;;;;;;;8.80;3.37;;;;;;;6.37;100.00;102042.00;4954394;28;20525;-76
2022/10/10 06:36:50;;;;;;;4.87;3.13;;;;;;;6.38;100.00;102036.59;4970795;28;20077;-75
2022/10/10 06:39:15;;;;;;;7.00;3.90;;;;;;;6.43;100.00;102029.19;4954580;28;20050;-75
2022/10/10 06:47:58;;;;;;;5.83;3.73;;;;;;;6.64;100.00;102031.28;4876830;29;20500;-77
2022/10/10 06:50:23;;;;;;;6.70;3.83;;;;;;;6.62;100.00;102026.09;4863556;29;20060;-76
2022/10/10 06:52:52;;;;;;;6.00;4.20;;;;;;;6.98;100.00;102085.41;4878701;29;20036;-76
2022/10/10 06:55:18;;;;;;;8.23;4.35;;;;;;;6.81;100.00;102030.97;4878668;29;20084;-76
2022/10/10 06:57:44;;;;;;;7.27;4.17;;;;;;;6.89;100.00;102023.31;4863076;29;20033;-76
2022/10/10 07:00:13;;;;;;;4.83;3.87;;;;;;;7.12;100.00;102045.53;4878697;29;20056;-76
2022/10/10 07:02:39;;;;;;;4.13;3.73;;;;;;;7.20;100.00;102050.28;4863131;29;20391;-76
2022/10/10 07:05:08;;;;;;;5.23;4.13;;;;;;;7.13;100.00;102024.25;4882170;29;20172;-76
2022/10/10 07:07:34;;;;;;;6.43;4.40;;;;;;;7.54;100.00;102072.59;4900534;29;20063;-77
2022/10/10 07:10:00;;;;;;;6.77;4.30;;;;;;;7.85;100.00;102084.47;4883973;29;20032;-75
2022/10/10 07:12:25;;;;;;;11.40;5.60;;;;;;;7.95;99.59;102080.16;4900731;29;20031;-76
2022/10/10 07:14:51;;;;;;;6.73;4.63;;;;;;;8.03;98.68;102083.09;4900583;29;20035;-76
2022/10/10 07:17:16;;;;;;;6.07;4.23;;;;;;;8.07;98.45;102089.84;4900576;29;20036;-74
2022/10/10 07:19:42;;;;;;;7.70;4.43;;;;;;;8.08;98.67;102087.09;4900925;29;20453;-78
2022/10/10 07:22:07;;;;;;;6.10;4.27;;;;;;;8.23;98.74;102084.25;4900489;29;20515;-77
2022/10/10 07:24:33;;;;;;;7.57;4.80;;;;;;;8.38;98.00;102078.69;4883609;29;20575;-77
2022/10/10 07:26:58;;;;;;;6.33;5.00;;;;;;;8.63;97.17;102082.94;4900383;29;20407;-76
2022/10/10 07:29:24;;;;;;;6.00;4.70;;;;;;;8.80;96.32;102078.16;4900073;29;20487;-75
2022/10/10 07:31:49;;;;;;;8.20;5.27;;;;;;;8.86;95.67;102083.84;4900119;29;20111;-75
2022/10/10 07:34:15;;;;;;;5.40;4.37;;;;;;;8.89;95.13;102088.91;4900169;29;20123;-75
2022/10/10 07:36:40;;;;;;;5.57;4.13;;;;;;;8.74;95.53;102074.19;4899996;29;20043;-76
2022/10/10 07:39:06;;;;;;;5.30;4.60;;;;;;;8.96;95.34;102083.97;4900004;29;20064;-77
2022/10/10 07:41:32;;;;;;;5.97;3.93;;;;;;;9.04;94.62;102080.72;4900019;29;20037;-76
2022/10/10 07:43:58;;;;;;;6.97;4.40;;;;;;;9.16;94.25;102085.91;4900209;29;20047;-75
2022/10/10 07:46:29;;;;;;;9.07;4.70;;;;;;;9.04;93.72;102078.06;4876190;29;20045;-77
2022/10/10 07:48:54;;;;;;;6.67;4.70;;;;;;;9.13;94.60;102090.63;4881184;29;20162;-77
2022/10/10 07:51:20;;;;;;;5.03;4.33;;;;;;;9.02;94.26;102082.66;4881414;29;20115;-74
2022/10/10 07:53:45;;;;;;;6.63;4.57;;;;;;;8.98;94.82;102076.75;4881236;29;20035;-76
2022/10/10 07:56:11;;;;;;;7.60;4.93;;;;;;;9.01;94.80;102081.81;4864529;29;20553;-77
2022/10/10 07:58:37;;;;;;;10.03;4.60;;;;;;;9.15;94.63;102094.00;4865219;29;20029;-77
2022/10/10 08:01:04;;;;;;;6.23;5.03;;;;;;;9.21;94.87;102088.19;4881860;29;20088;-76
2022/10/10 08:03:30;;;;;;;6.93;4.73;;;;;;;9.24;94.02;102099.44;4881547;29;20465;-76
2022/10/10 08:05:56;;;;;;;7.93;5.17;;;;;;;9.12;94.60;102067.66;4881615;29;20107;-76
2022/10/10 08:08:21;;;;;;;6.23;4.60;;;;;;;9.13;93.87;102074.66;4881772;29;20033;-78
2022/10/10 08:10:47;;;;;;;5.47;4.87;;;;;;;9.23;94.54;102102.22;4881992;29;20029;-76
2022/10/10 08:13:12;;;;;;;5.77;4.20;;;;;;;9.21;94.91;102105.00;4865962;29;20029;-76
2022/10/10 08:15:39;;;;;;;7.73;5.17;;;;;;;9.27;95.28;102098.38;4889052;29;20033;-75
2022/10/10 08:18:04;;;;;;;7.70;4.93;;;;;;;9.26;95.10;102096.69;4901005;29;20048;-76
2022/10/10 08:20:30;;;;;;;7.70;4.43;;;;;;;9.34;94.89;102107.53;4897593;29;20020;-74
2022/10/10 08:22:55;;;;;;;6.43;5.10;;;;;;;9.34;95.26;102110.19;4900306;29;20017;-76
2022/10/10 08:25:21;;;;;;;7.63;4.40;;;;;;;9.31;95.13;102107.78;4892295;29;20157;-76
2022/10/10 08:27:47;;;;;;;7.73;4.50;;;;;;;9.29;95.90;102115.03;4885366;29;20474;-74
2022/10/10 08:30:13;;;;;;;6.47;5.20;;;;;;;9.27;95.29;102109.00;4884655;29;20025;-75
2022/10/10 08:32:38;;;;;;;7.80;5.10;;;;;;;9.21;95.88;102109.47;4882644;29;20040;-76
2022/10/10 08:35:04;;;;;;;5.47;3.80;;;;;;;9.35;96.33;102121.69;4881188;29;20033;-74
2022/10/10 08:37:30;;;;;;;5.80;4.70;;;;;;;9.41;95.66;102116.72;4881132;29;20029;-76
2022/10/10 08:39:55;;;;;;;7.37;4.63;;;;;;;9.43;95.42;102120.09;4880643;29;20045;-75
2022/10/10 08:42:32;;;;;;;7.17;4.10;;;;;;;9.50;95.68;102126.59;4880640;29;20059;-74
2022/10/10 08:45:03;;;;;;;7.32;4.97;;;;;;;9.56;95.11;102115.50;4880284;29;20137;-75
2022/10/10 08:47:47;;;;;;;8.27;5.70;;;;;;;9.54;94.52;102112.13;4895805;29;20081;-76
2022/10/10 08:50:16;;;;;;;6.63;4.40;;;;;;;9.53;94.20;102113.06;4899195;29;20052;-76
2022/10/10 08:53:07;;;;;;;6.90;4.88;;;;;;;9.62;94.12;102128.31;4882058;29;20072;-75
2022/10/10 08:55:36;;;;;;;6.67;4.57;;;;;;;9.70;94.53;102126.84;4883582;29;20040;-76
2022/10/10 08:58:11;;;;;;;;;;;;;;;9.75;94.19;102125.50;4898919;29;20028;-76
2022/10/10 09:00:43;;;;;;;8.73;4.90;;;;;;;9.78;94.35;102124.38;4899801;29;19912;-76
2022/10/10 09:03:57;;;;;;;9.93;4.47;;;;;;;9.98;94.25;102120.97;4905608;29;20032;-75
2022/10/10 09:06:44;;;;;;;6.27;5.63;;;;;;;10.11;92.90;102121.63;4902095;29;20049;-76
2022/10/10 09:09:25;;;;;;;7.80;5.10;;;;;;;10.10;92.00;102130.59;4905587;29;20033;-74
2022/10/10 09:12:10;;;;;;;7.07;4.63;;;;;;;10.07;92.63;102125.53;4901082;29;20036;-75
2022/10/10 09:15:19;;;;;;;9.50;4.67;;;;;;;10.12;92.94;102112.69;4901023;29;20027;-74
2022/10/10 09:18:03;;;;;;;6.97;4.33;;;;;;;10.20;92.03;102112.94;4865144;29;20027;-74
2022/10/10 09:21:15;;;;;;;7.60;5.00;;;;;;;10.32;91.67;102112.88;4880339;29;20037;-75
2022/10/10 09:27:31;;;;;;;8.13;4.43;;;;;;;10.76;90.56;102098.47;4867538;29;20072;-80
2022/10/10 09:30:26;;;;;;;7.40;4.70;;;;;;;10.93;89.10;102103.19;4898473;29;20373;-79
2022/10/10 09:44:42;;;;;;;;;;;;;;;;;;;;;
2022/10/10 09:47:34;;;;;;;4.80;4.03;;;;;;;11.95;84.06;102070.13;4898397;29;20059;-76
2022/10/10 09:50:00;;;;;;;4.57;3.30;;;;;;;12.04;83.55;102095.97;4881731;29;20036;-79
2022/10/10 09:52:31;;;;;;;4.27;3.83;;;;;;;12.13;84.17;102098.78;4883036;29;20032;-80
2022/10/10 09:55:01;;;;;;;7.07;4.57;;;;;;;12.20;84.13;102110.63;4883028;29;20032;-75
2022/10/10 09:57:35;;;;;;;5.80;3.30;;;;;;;12.12;84.03;102100.63;4904206;29;20060;-75
2022/10/10 10:00:19;;;;;;;4.00;3.43;;;;;;;12.20;84.01;102110.63;4901201;29;20032;-76
2022/10/10 10:03:51;;;;;;;4.77;3.70;;;;;;;12.32;83.35;102104.13;4888328;29;20035;-75
2022/10/10 10:06:38;;;;;;;5.20;3.37;;;;;;;12.32;83.30;102096.13;4891904;29;20044;-75
2022/10/10 10:09:05;;;;;;;6.27;5.13;;;;;;;12.24;82.87;102075.47;4884958;29;20536;-75
2022/10/10 10:11:38;;;;;;;5.60;3.20;;;;;;;12.30;83.26;102100.78;4887212;29;20032;-77
2022/10/10 10:18:12;;;;;;;3.43;3.13;;;;;;;12.20;84.11;102103.44;4864580;29;20026;-76
2022/10/10 10:20:44;;;;;;;5.57;3.00;;;;;;;12.20;84.66;102097.25;4888905;29;20048;-74
2022/10/10 10:24:02;;;;;;;4.23;2.90;;;;;;;12.20;84.56;102099.94;4898622;29;20449;-75
2022/10/10 10:40:08;;;;;;;4.90;3.10;;;;;;;11.70;86.92;102097.31;4903469;29;20079;-76
2022/10/10 10:42:49;;;;;;;3.72;3.00;;;;;;;11.59;87.50;102100.09;4941621;29;20059;-76
2022/10/10 10:45:59;;;;;;;7.70;3.10;;;;;;;11.61;87.67;102103.47;4957208;29;20174;-75
2022/10/10 10:49:10;;;;;;;5.70;3.53;;;;;;;11.49;87.85;102082.22;4949454;29;20055;-72
2022/10/10 10:52:00;;;;;;;3.93;2.43;;;;;;;11.60;87.57;102102.63;4903787;29;20045;-75
2022/10/10 10:55:19;;;;;;;;;;;;;;;;;;;;;
2022/10/10 10:58:51;;;;;;;3.90;2.50;;;;;;;11.63;87.53;102097.03;4934277;29;20098;-75
2022/10/10 11:01:39;;;;;;;2.77;2.27;;;;;;;11.58;86.69;102082.41;4916789;29;20228;-75
2022/10/10 11:04:42;;;;;;;3.28;2.50;;;;;;;11.78;86.82;102092.16;4933528;29;20090;-77
2022/10/10 11:07:46;;;;;;;6.80;2.40;;;;;;;11.86;86.61;102100.34;4932777;29;20082;-76
2022/10/10 11:10:41;;;;;;;8.47;4.57;;;;;;;11.95;86.40;102083.47;4934259;29;20497;-78
2022/10/10 11:13:29;;;;;;;6.33;2.47;;;;;;;11.97;85.82;102084.19;4936209;29;20379;-76
2022/10/10 11:16:26;;;;;;;4.05;2.17;;;;;;;12.13;85.65;102096.13;4935572;29;20467;-76
2022/10/10 11:19:14;;;;;;;3.40;2.23;;;;;;;12.14;85.46;102095.97;4923445;29;20130;-77
2022/10/10 11:21:47;;;;;;;3.57;1.87;;;;;;;12.12;85.12;102094.44;4935062;29;20031;-77
2022/10/10 11:24:29;;;;;;;9.53;2.07;;;;;;;12.11;84.52;102090.91;4935167;29;20244;-77
2022/10/10 11:26:59;;;;;;;4.80;2.27;;;;;;;12.13;84.02;102096.13;4935143;29;20035;-77
2022/10/10 11:29:48;;;;;;;4.60;2.80;;;;;;;12.13;84.61;102101.47;4935242;29;20095;-77
2022/10/10 11:32:19;;;;;;;6.33;3.40;;;;;;;12.10;84.35;102103.44;4934715;29;20391;-75
2022/10/10 11:34:56;;;;;;;5.47;2.60;;;;;;;12.20;84.94;102105.28;4935135;29;20039;-77
2022/10/10 11:37:33;;;;;;;7.87;2.13;;;;;;;12.20;84.25;102098.09;4934480;29;20407;-76
2022/10/10 11:40:04;;;;;;;5.20;2.33;;;;;;;12.16;83.95;102082.50;4934953;29;20098;-75
2022/10/10 11:42:43;;;;;;;5.67;1.97;;;;;;;12.19;84.39;102106.25;4934662;29;20027;-76
2022/10/10 11:45:15;;;;;;;3.00;1.77;;;;;;;12.08;84.06;102081.34;4935057;29;20031;-76
2022/10/10 11:48:07;;;;;;;4.70;2.27;;;;;;;12.18;84.47;102093.91;4934752;29;20031;-75
2022/10/10 11:50:40;;;;;;;2.37;1.70;;;;;;;12.15;84.34;102100.34;4926355;29;20054;-77
2022/10/10 11:53:30;;;;;;;4.43;2.10;;;;;;;12.03;83.86;102078.28;4938526;29;20043;-76
2022/10/10 11:56:03;;;;;;;7.47;2.70;;;;;;;12.05;83.90;102099.50;4940531;29;20383;-77
2022/10/10 11:58:34;;;;;;;5.27;2.07;;;;;;;12.02;84.16;102095.28;4943258;29;20079;-76
2022/10/10 12:01:11;;;;;;;3.03;1.90;;;;;;;12.01;85.11;102096.25;4924841;29;20035;-74
2022/10/10 12:03:37;;;;;;;6.13;2.43;;;;;;;12.01;84.53;102090.09;4939965;29;20122;-76
2022/10/10 12:06:14;;;;;;;2.60;2.10;;;;;;;12.02;84.06;102097.94;4938920;29;20135;-75
2022/10/10 12:08:46;;;;;;;3.77;1.90;;;;;;;12.02;84.69;102087.25;4939141;29;20028;-77
2022/10/10 12:11:27;;;;;;;3.10;1.63;;;;;;;11.99;84.30;102087.56;4921381;29;20115;-76
2022/10/10 12:13:58;;;;;;;3.17;1.80;;;;;;;11.94;84.52;102083.63;4940763;29;20051;-75
2022/10/10 12:16:28;;;;;;;2.63;1.90;;;;;;;11.98;84.36;102091.22;4926419;29;20044;-75
2022/10/10 12:19:13;;;;;;;3.73;1.80;;;;;;;12.01;84.81;102090.09;4944642;29;20175;-78
2022/10/10 12:22:03;;;;;;;6.93;2.00;;;;;;;12.03;84.85;102086.28;4945898;29;20476;-77
2022/10/10 12:24:56;;;;;;;3.50;2.10;;;;;;;11.99;84.55;102092.03;4948387;29;20028;-75
2022/10/10 12:27:28;;;;;;;3.20;1.80;;;;;;;12.02;83.71;102092.59;4946741;29;20035;-78
2022/10/10 12:29:54;;;;;;;5.10;2.33;;;;;;;11.98;83.77;102091.22;4945308;29;20054;-76
2022/10/10 12:32:20;;;;;;;5.33;2.73;;;;;;;12.12;83.09;102086.41;4945184;29;20467;-74
2022/10/10 12:34:48;;;;;;;5.53;2.33;;;;;;;12.34;82.21;102076.28;4942144;29;20524;-75
2022/10/10 12:37:27;;;;;;;4.37;1.77;;;;;;;12.59;80.96;102085.53;4934971;29;20052;-75
2022/10/10 12:40:05;;;;;;;6.23;3.77;;;;;;;12.64;80.15;102093.97;4924002;29;20742;-76
2022/10/10 12:43:24;;;;;;;4.53;1.73;;;;;;;12.40;80.98;102093.56;4925571;29;20028;-74
2022/10/10 12:46:08;;;;;;;3.80;1.77;;;;;;;12.26;82.21;102088.69;4887846;29;20055;-73